createdAt,value
2023-01-11T00:00:01.929Z,993.59
2023-01-11T00:01:01.918Z,993.60
2023-01-11T00:02:02.001Z,993.56
2023-01-11T00:03:01.892Z,993.55
2023-01-11T00:04:01.885Z,993.53
2023-01-11T00:05:01.919Z,993.54
2023-01-11T00:06:01.862Z,993.57
2023-01-11T00:07:01.871Z,993.60
2023-01-11T00:08:01.843Z,993.58
2023-01-11T00:09:01.833Z,993.58
2023-01-11T00:10:01.822Z,993.56
2023-01-11T00:11:01.843Z,993.54
2023-01-11T00:12:01.823Z,993.54
2023-01-11T00:13:01.789Z,993.64
2023-01-11T00:14:01.801Z,993.71
2023-01-11T00:15:01.788Z,993.55
2023-01-11T00:16:01.823Z,993.62
2023-01-11T00:17:01.767Z,993.51
2023-01-11T00:18:01.735Z,993.53
2023-01-11T00:19:01.745Z,993.54
2023-01-11T00:20:01.750Z,993.56
2023-01-11T00:21:01.705Z,993.49
2023-01-11T00:22:01.720Z,993.48
2023-01-11T00:23:01.689Z,993.47
2023-01-11T00:24:01.683Z,993.48
2023-01-11T00:25:01.667Z,993.51
2023-01-11T00:26:01.660Z,993.34
2023-01-11T00:27:01.658Z,993.51
2023-01-11T00:28:01.639Z,993.48
2023-01-11T00:29:01.618Z,993.43
2023-01-11T00:30:01.613Z,993.35
2023-01-11T00:31:01.637Z,993.45
2023-01-11T00:32:01.606Z,993.33
2023-01-11T00:33:01.579Z,993.45
2023-01-11T00:34:01.567Z,993.44
2023-01-11T00:35:01.564Z,993.33
2023-01-11T00:36:01.562Z,993.27
2023-01-11T00:37:01.551Z,993.26
2023-01-11T00:38:01.537Z,993.34
2023-01-11T00:39:01.520Z,993.17
2023-01-11T00:40:01.520Z,993.19
2023-01-11T00:41:01.502Z,993.26
2023-01-11T00:42:01.521Z,993.27
2023-01-11T00:43:01.481Z,993.25
2023-01-11T00:44:01.462Z,993.20
2023-01-11T00:45:01.470Z,993.40
2023-01-11T00:46:01.473Z,993.26
2023-01-11T00:47:01.433Z,993.28
2023-01-11T00:48:01.444Z,993.35
2023-01-11T00:49:01.414Z,993.24
2023-01-11T00:50:01.432Z,993.23
2023-01-11T00:51:01.393Z,993.20
2023-01-11T00:52:01.386Z,993.26
2023-01-11T00:53:01.395Z,993.18
2023-01-11T00:54:01.364Z,993.14
2023-01-11T00:55:01.345Z,993.11
2023-01-11T00:56:01.346Z,993.17
2023-01-11T00:57:01.352Z,993.14
2023-01-11T00:58:01.341Z,993.21
2023-01-11T00:59:01.314Z,993.24
2023-01-11T01:00:01.299Z,993.05
2023-01-11T01:01:01.302Z,993.07
2023-01-11T01:02:01.290Z,993.07
2023-01-11T01:03:01.287Z,993.08
2023-01-11T01:04:01.297Z,993.10
2023-01-11T01:05:01.255Z,993.05
2023-01-11T01:06:01.255Z,993.13
2023-01-11T01:07:01.234Z,993.19
2023-01-11T01:08:01.237Z,993.16
2023-01-11T01:09:01.210Z,993.12
2023-01-11T01:10:01.202Z,993.17
2023-01-11T01:11:01.192Z,993.19
2023-01-11T01:12:01.179Z,993.18
2023-01-11T01:13:01.170Z,993.15
2023-01-11T01:14:01.151Z,993.15
2023-01-11T01:15:01.158Z,993.13
2023-01-11T01:16:01.165Z,993.06
2023-01-11T01:17:01.119Z,993.10
2023-01-11T01:18:01.158Z,993.08
2023-01-11T01:19:01.107Z,993.13
2023-01-11T01:20:01.095Z,993.12
2023-01-11T01:21:01.082Z,993.08
2023-01-11T01:22:01.080Z,992.98
2023-01-11T01:23:01.074Z,993.01
2023-01-11T01:24:01.053Z,992.97
2023-01-11T01:25:01.040Z,993.00
2023-01-11T01:26:01.034Z,993.12
2023-01-11T01:27:01.026Z,993.11
2023-01-11T01:28:01.026Z,993.05
2023-01-11T01:29:00.999Z,993.01
2023-01-11T01:30:01.000Z,992.99
2023-01-11T01:31:01.044Z,992.92
2023-01-11T01:32:00.984Z,992.94
2023-01-11T01:33:00.987Z,993.03
2023-01-11T01:34:00.958Z,993.04
2023-01-11T01:35:00.926Z,992.96
2023-01-11T01:36:00.929Z,992.89
2023-01-11T01:37:00.917Z,992.81
2023-01-11T01:38:00.928Z,992.91
2023-01-11T01:39:00.904Z,992.85
2023-01-11T01:40:00.906Z,992.95
2023-01-11T01:41:00.872Z,992.93
2023-01-11T01:42:00.867Z,992.98
2023-01-11T01:43:00.874Z,992.91
2023-01-11T01:44:00.847Z,993.07
2023-01-11T01:45:00.839Z,992.89
2023-01-11T01:46:00.856Z,992.87
2023-01-11T01:47:00.810Z,992.84
2023-01-11T01:48:00.813Z,992.95
2023-01-11T01:49:00.792Z,992.83
2023-01-11T01:50:00.800Z,992.85
2023-01-11T01:51:00.781Z,992.84
2023-01-11T01:52:00.777Z,992.86
2023-01-11T01:53:00.753Z,992.82
2023-01-11T01:54:00.742Z,992.87
2023-01-11T01:55:00.722Z,992.87
2023-01-11T01:56:00.741Z,992.91
2023-01-11T01:57:00.712Z,992.97
2023-01-11T01:58:00.730Z,992.96
2023-01-11T01:59:00.683Z,992.93
2023-01-11T02:00:00.682Z,992.89
2023-01-11T02:01:00.667Z,992.83
2023-01-11T02:02:00.777Z,992.85
2023-01-11T02:03:00.701Z,992.82
2023-01-11T02:04:00.635Z,992.77
2023-01-11T02:05:00.633Z,992.75
2023-01-11T02:06:00.616Z,992.78
2023-01-11T02:07:00.596Z,992.81
2023-01-11T02:08:00.608Z,992.75
2023-01-11T02:09:00.583Z,992.76
2023-01-11T02:10:00.599Z,992.80
2023-01-11T02:11:00.557Z,992.79
2023-01-11T02:12:00.560Z,992.78
2023-01-11T02:13:00.565Z,992.79
2023-01-11T02:14:00.525Z,992.79
2023-01-11T02:15:00.528Z,992.73
2023-01-11T02:16:00.560Z,992.71
2023-01-11T02:17:00.503Z,992.69
2023-01-11T02:18:00.505Z,992.71
2023-01-11T02:19:00.481Z,992.71
2023-01-11T02:20:00.473Z,992.73
2023-01-11T02:21:00.461Z,992.74
2023-01-11T02:22:00.464Z,992.77
2023-01-11T02:23:00.451Z,992.77
2023-01-11T02:24:00.452Z,992.78
2023-01-11T02:25:00.432Z,992.73
2023-01-11T02:26:00.400Z,992.77
2023-01-11T02:27:00.392Z,992.61
2023-01-11T02:28:00.405Z,992.61
2023-01-11T02:29:00.377Z,992.72
2023-01-11T02:30:00.379Z,992.66
2023-01-11T02:31:00.373Z,992.56
2023-01-11T02:32:00.362Z,992.57
2023-01-11T02:33:00.355Z,992.60
2023-01-11T02:34:00.324Z,992.59
2023-01-11T02:35:00.311Z,992.62
2023-01-11T02:36:00.304Z,992.55
2023-01-11T02:37:00.349Z,992.52
2023-01-11T02:38:00.308Z,992.62
2023-01-11T02:39:00.273Z,992.47
2023-01-11T02:40:00.308Z,992.46
2023-01-11T02:41:00.247Z,992.47
2023-01-11T02:42:00.246Z,992.34
2023-01-11T02:43:00.236Z,992.40
2023-01-11T02:44:00.227Z,992.30
2023-01-11T02:45:00.208Z,992.35
2023-01-11T02:46:00.215Z,992.49
2023-01-11T02:47:00.187Z,992.42
2023-01-11T02:48:00.197Z,992.31
2023-01-11T02:49:00.174Z,992.37
2023-01-11T02:50:00.163Z,992.35
2023-01-11T02:51:00.138Z,992.37
2023-01-11T02:52:00.137Z,992.33
2023-01-11T02:53:00.143Z,992.32
2023-01-11T02:54:00.114Z,992.31
2023-01-11T02:55:00.099Z,992.29
2023-01-11T02:56:00.118Z,992.33
2023-01-11T02:57:00.120Z,992.32
2023-01-11T02:58:00.123Z,992.33
2023-01-11T02:59:00.094Z,992.33
2023-01-11T03:00:00.062Z,992.28
2023-01-11T03:01:00.048Z,992.30
2023-01-11T03:02:00.082Z,992.31
2023-01-11T03:03:00.141Z,992.27
2023-01-11T03:04:00.013Z,992.41
2023-01-11T03:05:00.006Z,992.32
2023-01-11T03:05:59.996Z,992.24
2023-01-11T03:06:59.994Z,992.26
2023-01-11T03:07:59.983Z,992.20
2023-01-11T03:08:59.954Z,992.16
2023-01-11T03:09:59.956Z,992.24
2023-01-11T03:10:59.942Z,992.15
2023-01-11T03:11:59.933Z,992.12
2023-01-11T03:12:59.943Z,992.08
2023-01-11T03:13:59.915Z,991.99
2023-01-11T03:14:59.897Z,992.06
2023-01-11T03:15:59.928Z,992.11
2023-01-11T03:16:59.880Z,992.13
2023-01-11T03:17:59.875Z,992.02
2023-01-11T03:18:59.859Z,992.14
2023-01-11T03:19:59.845Z,992.11
2023-01-11T03:20:59.828Z,992.09
2023-01-11T03:21:59.831Z,992.06
2023-01-11T03:22:59.831Z,992.12
2023-01-11T03:23:59.806Z,992.09
2023-01-11T03:24:59.794Z,992.00
2023-01-11T03:25:59.785Z,992.06
2023-01-11T03:26:59.772Z,992.03
2023-01-11T03:27:59.769Z,992.08
2023-01-11T03:28:59.751Z,992.02
2023-01-11T03:29:59.747Z,991.98
2023-01-11T03:30:59.779Z,992.03
2023-01-11T03:31:59.720Z,992.07
2023-01-11T03:32:59.719Z,992.00
2023-01-11T03:33:59.718Z,991.96
2023-01-11T03:34:59.683Z,991.98
2023-01-11T03:35:59.689Z,992.03
2023-01-11T03:36:59.661Z,991.92
2023-01-11T03:37:59.672Z,991.92
2023-01-11T03:38:59.645Z,991.91
2023-01-11T03:39:59.644Z,991.87
2023-01-11T03:40:59.623Z,991.95
2023-01-11T03:41:59.642Z,991.79
2023-01-11T03:42:59.644Z,991.78
2023-01-11T03:43:59.595Z,991.73
2023-01-11T03:44:59.582Z,991.63
2023-01-11T03:45:59.576Z,991.70
2023-01-11T03:46:59.627Z,991.74
2023-01-11T03:47:59.563Z,991.67
2023-01-11T03:48:59.552Z,991.66
2023-01-11T03:49:59.533Z,991.74
2023-01-11T03:50:59.534Z,991.64
2023-01-11T03:51:59.521Z,991.72
2023-01-11T03:52:59.516Z,991.58
2023-01-11T03:53:59.493Z,991.60
2023-01-11T03:54:59.486Z,991.61
2023-01-11T03:55:59.467Z,991.56
2023-01-11T03:56:59.458Z,991.54
2023-01-11T03:57:59.469Z,991.47
2023-01-11T03:58:59.439Z,991.49
2023-01-11T03:59:59.430Z,991.54
2023-01-11T04:00:59.508Z,991.49
2023-01-11T04:01:59.410Z,991.46
2023-01-11T04:02:59.402Z,991.51
2023-01-11T04:03:59.481Z,991.45
2023-01-11T04:04:59.369Z,991.57
2023-01-11T04:05:59.372Z,991.55
2023-01-11T04:06:59.380Z,991.50
2023-01-11T04:07:59.352Z,991.38
2023-01-11T04:08:59.378Z,991.47
2023-01-11T04:09:59.324Z,991.41
2023-01-11T04:10:59.320Z,991.36
2023-01-11T04:11:59.313Z,991.37
2023-01-11T04:12:59.303Z,991.30
2023-01-11T04:13:59.290Z,991.33
2023-01-11T04:14:59.282Z,991.30
2023-01-11T04:15:59.339Z,991.30
2023-01-11T04:16:59.243Z,991.20
2023-01-11T04:17:59.252Z,991.16
2023-01-11T04:18:59.245Z,991.31
2023-01-11T04:19:59.230Z,991.16
2023-01-11T04:20:59.254Z,991.22
2023-01-11T04:21:59.268Z,991.11
2023-01-11T04:22:59.191Z,991.10
2023-01-11T04:23:59.206Z,991.21
2023-01-11T04:24:59.173Z,991.17
2023-01-11T04:25:59.171Z,991.27
2023-01-11T04:26:59.153Z,991.24
2023-01-11T04:27:59.152Z,991.34
2023-01-11T04:28:59.143Z,991.22
2023-01-11T04:29:59.117Z,991.23
2023-01-11T04:30:59.107Z,991.24
2023-01-11T04:31:59.099Z,991.15
2023-01-11T04:32:59.131Z,991.15
2023-01-11T04:33:59.132Z,991.26
2023-01-11T04:34:59.069Z,991.28
2023-01-11T04:35:59.060Z,991.21
2023-01-11T04:36:59.062Z,991.14
2023-01-11T04:37:59.036Z,991.20
2023-01-11T04:38:59.049Z,991.22
2023-01-11T04:39:59.013Z,991.26
2023-01-11T04:40:59.002Z,991.19
2023-01-11T04:41:59.026Z,991.23
2023-01-11T04:42:58.986Z,991.25
2023-01-11T04:43:58.981Z,991.14
2023-01-11T04:44:58.960Z,991.17
2023-01-11T04:45:58.977Z,991.24
2023-01-11T04:46:58.944Z,991.08
2023-01-11T04:47:58.937Z,991.05
2023-01-11T04:48:58.949Z,991.06
2023-01-11T04:49:58.911Z,991.07
2023-01-11T04:50:58.914Z,991.09
2023-01-11T04:51:59.029Z,991.08
2023-01-11T04:52:58.876Z,991.15
2023-01-11T04:53:58.878Z,991.13
2023-01-11T04:54:58.879Z,991.04
2023-01-11T04:55:58.845Z,990.96
2023-01-11T04:56:58.841Z,991.13
2023-01-11T04:57:58.827Z,991.12
2023-01-11T04:58:58.847Z,991.17
2023-01-11T04:59:58.804Z,991.07
2023-01-11T05:00:58.877Z,991.09
2023-01-11T05:01:58.786Z,990.98
2023-01-11T05:02:58.781Z,991.24
2023-01-11T05:03:58.898Z,991.03
2023-01-11T05:04:58.757Z,991.06
2023-01-11T05:05:58.756Z,991.07
2023-01-11T05:06:58.768Z,991.00
2023-01-11T05:07:58.725Z,991.04
2023-01-11T05:08:58.718Z,991.12
2023-01-11T05:09:58.709Z,991.01
2023-01-11T05:10:58.690Z,990.95
2023-01-11T05:11:58.678Z,990.97
2023-01-11T05:12:58.680Z,991.07
2023-01-11T05:13:58.671Z,990.90
2023-01-11T05:14:58.650Z,990.93
2023-01-11T05:15:58.633Z,990.93
2023-01-11T05:16:58.630Z,990.97
2023-01-11T05:17:58.612Z,990.92
2023-01-11T05:18:58.622Z,990.97
2023-01-11T05:19:58.593Z,990.90
2023-01-11T05:20:58.583Z,990.95
2023-01-11T05:21:58.573Z,990.84
2023-01-11T05:22:58.562Z,990.84
2023-01-11T05:23:58.564Z,990.90
2023-01-11T05:24:58.564Z,990.80
2023-01-11T05:25:58.536Z,990.80
2023-01-11T05:26:58.546Z,990.82
2023-01-11T05:27:58.513Z,990.76
2023-01-11T05:28:58.514Z,990.81
2023-01-11T05:29:58.486Z,990.94
2023-01-11T05:30:58.495Z,990.89
2023-01-11T05:31:58.490Z,990.95
2023-01-11T05:32:58.479Z,990.90
2023-01-11T05:33:58.477Z,990.85
2023-01-11T05:34:58.447Z,990.84
2023-01-11T05:35:58.726Z,990.78
2023-01-11T05:36:58.427Z,990.75
2023-01-11T05:37:58.416Z,990.89
2023-01-11T05:38:58.420Z,990.84
2023-01-11T05:39:58.406Z,990.77
2023-01-11T05:40:58.390Z,990.99
2023-01-11T05:41:58.378Z,990.77
2023-01-11T05:42:58.371Z,990.79
2023-01-11T05:43:58.395Z,990.87
2023-01-11T05:44:58.387Z,990.79
2023-01-11T05:45:58.379Z,990.81
2023-01-11T05:46:58.320Z,990.87
2023-01-11T05:47:58.308Z,990.81
2023-01-11T05:48:58.320Z,990.75
2023-01-11T05:49:58.304Z,990.64
2023-01-11T05:51:00.205Z,990.73
2023-01-11T05:51:58.261Z,990.67
2023-01-11T05:52:58.253Z,990.71
2023-01-11T05:53:58.252Z,990.78
2023-01-11T05:54:58.235Z,990.78
2023-01-11T05:55:58.225Z,990.73
2023-01-11T05:56:58.211Z,990.76
2023-01-11T05:57:58.203Z,990.75
2023-01-11T05:58:58.235Z,990.72
2023-01-11T05:59:58.174Z,990.70
2023-01-11T06:00:58.166Z,990.78
2023-01-11T06:01:58.174Z,990.66
2023-01-11T06:02:58.296Z,990.73
2023-01-11T06:03:58.147Z,990.78
2023-01-11T06:04:58.126Z,990.76
2023-01-11T06:05:58.117Z,990.71
2023-01-11T06:06:58.167Z,990.79
2023-01-11T06:07:58.095Z,990.67
2023-01-11T06:08:58.107Z,990.67
2023-01-11T06:09:58.080Z,990.63
2023-01-11T06:10:58.070Z,990.73
2023-01-11T06:11:58.055Z,990.74
2023-01-11T06:12:58.045Z,990.67
2023-01-11T06:13:58.073Z,990.69
2023-01-11T06:14:58.027Z,990.73
2023-01-11T06:15:58.013Z,990.66
2023-01-11T06:16:58.046Z,990.59
2023-01-11T06:17:57.990Z,990.53
2023-01-11T06:18:58.007Z,990.58
2023-01-11T06:19:57.969Z,990.50
2023-01-11T06:20:57.979Z,990.46
2023-01-11T06:21:58.047Z,990.42
2023-01-11T06:22:57.941Z,990.41
2023-01-11T06:23:57.931Z,990.39
2023-01-11T06:24:57.924Z,990.44
2023-01-11T06:25:57.914Z,990.44
2023-01-11T06:26:57.908Z,990.41
2023-01-11T06:27:57.883Z,990.35
2023-01-11T06:28:57.893Z,990.30
2023-01-11T06:29:57.864Z,990.50
2023-01-11T06:30:57.899Z,990.40
2023-01-11T06:31:57.843Z,990.34
2023-01-11T06:32:57.842Z,990.35
2023-01-11T06:33:57.830Z,990.40
2023-01-11T06:34:57.827Z,990.47
2023-01-11T06:35:57.804Z,990.35
2023-01-11T06:36:57.796Z,990.42
2023-01-11T06:37:57.779Z,990.44
2023-01-11T06:38:57.802Z,990.41
2023-01-11T06:39:57.780Z,990.40
2023-01-11T06:40:57.758Z,990.36
2023-01-11T06:41:57.750Z,990.40
2023-01-11T06:42:57.747Z,990.32
2023-01-11T06:43:57.735Z,990.39
2023-01-11T06:44:57.732Z,990.37
2023-01-11T06:45:57.763Z,990.33
2023-01-11T06:46:57.698Z,990.30
2023-01-11T06:47:57.684Z,990.31
2023-01-11T06:48:57.700Z,990.27
2023-01-11T06:49:57.651Z,990.30
2023-01-11T06:50:57.664Z,990.27
2023-01-11T06:51:57.646Z,990.24
2023-01-11T06:52:57.629Z,990.29
2023-01-11T06:53:57.621Z,990.33
2023-01-11T06:54:57.624Z,990.30
2023-01-11T06:55:57.594Z,990.25
2023-01-11T06:56:57.643Z,990.25
2023-01-11T06:57:57.583Z,990.28
2023-01-11T06:58:57.572Z,990.37
2023-01-11T06:59:57.562Z,990.32
2023-01-11T07:00:57.602Z,990.33
2023-01-11T07:01:57.549Z,990.36
2023-01-11T07:02:57.526Z,990.25
2023-01-11T07:03:57.514Z,990.42
2023-01-11T07:04:57.540Z,990.28
2023-01-11T07:05:57.517Z,990.35
2023-01-11T07:06:57.485Z,990.39
2023-01-11T07:07:57.465Z,990.36
2023-01-11T07:08:57.461Z,990.33
2023-01-11T07:09:57.463Z,990.32
2023-01-11T07:10:57.469Z,990.25
2023-01-11T07:11:57.427Z,990.31
2023-01-11T07:12:57.416Z,990.32
2023-01-11T07:13:57.411Z,990.34
2023-01-11T07:14:57.416Z,990.30
2023-01-11T07:15:57.388Z,990.32
2023-01-11T07:16:57.327Z,990.26
2023-01-11T07:17:57.329Z,990.27
2023-01-11T07:18:57.308Z,990.23
2023-01-11T07:19:57.301Z,990.27
2023-01-11T07:20:57.329Z,990.29
2023-01-11T07:21:57.282Z,990.31
2023-01-11T07:22:57.277Z,990.20
2023-01-11T07:23:57.249Z,990.27
2023-01-11T07:24:57.318Z,990.26
2023-01-11T07:25:57.320Z,990.20
2023-01-11T07:26:57.338Z,990.22
2023-01-11T07:27:57.272Z,990.26
2023-01-11T07:28:57.253Z,990.29
2023-01-11T07:29:57.251Z,990.28
2023-01-11T07:30:59.403Z,990.30
2023-01-11T07:31:57.177Z,990.23
2023-01-11T07:32:57.164Z,990.30
2023-01-11T07:33:57.155Z,990.27
2023-01-11T07:34:57.153Z,990.20
2023-01-11T07:35:57.124Z,990.31
2023-01-11T07:36:57.125Z,990.18
2023-01-11T07:37:57.112Z,990.18
2023-01-11T07:38:57.105Z,990.21
2023-01-11T07:39:57.113Z,990.19
2023-01-11T07:40:57.086Z,990.26
2023-01-11T07:41:57.065Z,990.42
2023-01-11T07:42:57.060Z,990.27
2023-01-11T07:43:57.040Z,990.25
2023-01-11T07:44:57.047Z,990.24
2023-01-11T07:45:57.082Z,990.24
2023-01-11T07:46:57.169Z,990.26
2023-01-11T07:47:56.997Z,990.26
2023-01-11T07:48:56.997Z,990.27
2023-01-11T07:49:57.025Z,990.31
2023-01-11T07:50:56.981Z,990.27
2023-01-11T07:51:56.959Z,990.32
2023-01-11T07:52:56.950Z,990.26
2023-01-11T07:53:56.941Z,990.30
2023-01-11T07:54:56.949Z,990.26
2023-01-11T07:55:56.922Z,990.29
2023-01-11T07:56:56.921Z,990.23
2023-01-11T07:57:56.901Z,990.24
2023-01-11T07:58:56.893Z,990.13
2023-01-11T07:59:56.911Z,990.27
2023-01-11T08:00:56.869Z,990.21
2023-01-11T08:01:56.852Z,990.19
2023-01-11T08:02:56.895Z,990.17
2023-01-11T08:03:56.832Z,990.16
2023-01-11T08:04:56.841Z,990.25
2023-01-11T08:05:56.817Z,990.17
2023-01-11T08:06:56.805Z,990.23
2023-01-11T08:07:56.810Z,990.23
2023-01-11T08:08:56.789Z,990.16
2023-01-11T08:09:56.783Z,990.25
2023-01-11T08:10:56.764Z,990.24
2023-01-11T08:11:56.754Z,990.24
2023-01-11T08:12:56.742Z,990.29
2023-01-11T08:13:56.732Z,990.22
2023-01-11T08:14:56.765Z,990.23
2023-01-11T08:15:56.769Z,990.25
2023-01-11T08:16:56.714Z,990.24
2023-01-11T08:17:56.687Z,990.27
2023-01-11T08:18:56.689Z,990.34
2023-01-11T08:19:56.678Z,990.31
2023-01-11T08:20:56.660Z,990.40
2023-01-11T08:21:56.649Z,990.30
2023-01-11T08:22:56.648Z,990.38
2023-01-11T08:23:56.639Z,990.34
2023-01-11T08:24:56.640Z,990.36
2023-01-11T08:25:56.608Z,990.31
2023-01-11T08:26:56.601Z,990.38
2023-01-11T08:27:56.581Z,990.36
2023-01-11T08:28:56.573Z,990.42
2023-01-11T08:29:56.580Z,990.31
2023-01-11T08:30:56.584Z,990.41
2023-01-11T08:31:56.543Z,990.35
2023-01-11T08:32:56.532Z,990.51
2023-01-11T08:33:56.522Z,990.35
2023-01-11T08:34:56.534Z,990.38
2023-01-11T08:35:56.510Z,990.38
2023-01-11T08:36:56.493Z,990.34
2023-01-11T08:37:56.472Z,990.38
2023-01-11T08:38:56.473Z,990.28
2023-01-11T08:39:56.484Z,990.38
2023-01-11T08:40:56.451Z,990.34
2023-01-11T08:41:56.441Z,990.37
2023-01-11T08:42:56.437Z,990.26
2023-01-11T08:43:56.426Z,990.38
2023-01-11T08:44:56.420Z,990.40
2023-01-11T08:45:56.406Z,990.39
2023-01-11T08:46:56.392Z,990.35
2023-01-11T08:47:56.393Z,990.34
2023-01-11T08:48:56.364Z,990.34
2023-01-11T08:49:56.375Z,990.37
2023-01-11T08:50:56.338Z,990.29
2023-01-11T08:51:56.336Z,990.36
2023-01-11T08:52:56.327Z,990.34
2023-01-11T08:53:56.324Z,990.34
2023-01-11T08:54:56.316Z,990.39
2023-01-11T08:55:56.300Z,990.35
2023-01-11T08:56:56.294Z,990.37
2023-01-11T08:57:56.270Z,990.47
2023-01-11T08:58:56.285Z,990.32
2023-01-11T08:59:56.295Z,990.37
2023-01-11T09:00:56.241Z,990.42
2023-01-11T09:01:56.295Z,990.45
2023-01-11T09:02:56.232Z,990.39
2023-01-11T09:03:56.215Z,990.48
2023-01-11T09:04:56.212Z,990.42
2023-01-11T09:05:56.197Z,990.48
2023-01-11T09:06:56.180Z,990.41
2023-01-11T09:07:56.169Z,990.50
2023-01-11T09:08:56.174Z,990.45
2023-01-11T09:09:56.172Z,990.44
2023-01-11T09:10:56.135Z,990.40
2023-01-11T09:11:56.127Z,990.44
2023-01-11T09:12:56.105Z,990.41
2023-01-11T09:13:56.106Z,990.47
2023-01-11T09:14:57.047Z,990.46
2023-01-11T09:15:56.141Z,990.49
2023-01-11T09:16:56.088Z,990.49
2023-01-11T09:17:56.064Z,990.45
2023-01-11T09:18:56.045Z,990.47
2023-01-11T09:19:56.064Z,990.50
2023-01-11T09:20:56.037Z,990.49
2023-01-11T09:21:56.027Z,990.51
2023-01-11T09:22:56.007Z,990.51
2023-01-11T09:23:55.998Z,990.45
2023-01-11T09:24:55.999Z,990.49
2023-01-11T09:25:55.995Z,990.45
2023-01-11T09:26:56.005Z,990.62
2023-01-11T09:27:55.967Z,990.52
2023-01-11T09:28:55.972Z,990.59
2023-01-11T09:29:55.973Z,990.58
2023-01-11T09:30:55.987Z,990.56
2023-01-11T09:31:55.921Z,990.59
2023-01-11T09:32:55.901Z,990.54
2023-01-11T09:33:55.898Z,990.62
2023-01-11T09:34:56.855Z,990.63
2023-01-11T09:35:55.874Z,990.52
2023-01-11T09:36:55.861Z,990.48
2023-01-11T09:37:55.872Z,990.60
2023-01-11T09:38:55.843Z,990.51
2023-01-11T09:39:55.856Z,990.56
2023-01-11T09:40:55.812Z,990.60
2023-01-11T09:41:55.813Z,990.53
2023-01-11T09:42:55.795Z,990.55
2023-01-11T09:43:55.798Z,990.60
2023-01-11T09:44:55.787Z,990.54
2023-01-11T09:45:55.772Z,990.60
2023-01-11T09:46:55.791Z,990.56
2023-01-11T09:47:55.756Z,990.53
2023-01-11T09:48:55.736Z,990.57
2023-01-11T09:49:55.735Z,990.62
2023-01-11T09:50:55.744Z,990.63
2023-01-11T09:51:55.708Z,990.61
2023-01-11T09:52:55.697Z,990.72
2023-01-11T09:53:55.686Z,990.60
2023-01-11T09:54:55.687Z,990.60
2023-01-11T09:55:55.676Z,990.51
2023-01-11T09:56:55.647Z,990.53
2023-01-11T09:57:55.669Z,990.59
2023-01-11T09:58:55.632Z,990.52
2023-01-11T09:59:55.642Z,990.54
2023-01-11T10:00:55.661Z,990.56
2023-01-11T10:01:55.598Z,990.61
2023-01-11T10:02:55.583Z,990.64
2023-01-11T10:03:55.578Z,990.62
2023-01-11T10:04:55.659Z,990.57
2023-01-11T10:05:55.599Z,990.63
2023-01-11T10:06:55.544Z,990.59
2023-01-11T10:18:23.318Z,990.74
2023-01-11T10:18:31.570Z,990.86
2023-01-11T10:18:37.856Z,990.81
2023-01-11T10:18:38.765Z,990.76
2023-01-11T10:19:25.605Z,990.86
2023-01-11T10:19:56.440Z,990.87
2023-01-11T10:20:55.420Z,990.84
2023-01-11T10:21:55.389Z,990.88
2023-01-11T10:22:55.374Z,990.89
2023-01-11T10:23:55.374Z,990.80
2023-01-11T10:24:55.360Z,990.81
2023-01-11T10:25:55.357Z,990.89
2023-01-11T10:26:55.361Z,990.98
2023-01-11T10:27:55.329Z,990.96
2023-01-11T10:28:55.307Z,990.91
2023-01-11T10:29:55.301Z,990.90
2023-01-11T10:30:55.299Z,990.91
2023-01-11T10:31:55.279Z,990.88
2023-01-11T10:32:55.272Z,990.87
2023-01-11T10:33:55.271Z,990.92
2023-01-11T10:34:55.243Z,991.00
2023-01-11T10:35:55.268Z,990.94
2023-01-11T10:36:55.223Z,990.94
2023-01-11T10:37:55.213Z,990.88
2023-01-11T10:38:55.202Z,990.81
2023-01-11T10:39:55.205Z,990.85
2023-01-11T10:40:55.194Z,990.88
2023-01-11T10:41:55.172Z,990.91
2023-01-11T10:42:55.164Z,990.90
2023-01-11T10:43:55.181Z,990.80
2023-01-11T10:44:55.148Z,990.78
2023-01-11T10:45:55.222Z,990.72
2023-01-11T10:46:55.116Z,990.74
2023-01-11T10:47:55.112Z,990.71
2023-01-11T10:48:55.097Z,990.69
2023-01-11T10:49:55.109Z,990.74
2023-01-11T10:50:55.104Z,990.68
2023-01-11T10:51:55.067Z,990.61
2023-01-11T10:52:55.055Z,990.59
2023-01-11T10:53:55.083Z,990.57
2023-01-11T10:54:55.031Z,990.57
2023-01-11T10:55:55.040Z,990.56
2023-01-11T10:57:03.182Z,990.56
2023-01-11T10:58:00.119Z,990.56
2023-01-11T10:58:55.989Z,990.46
2023-01-11T10:59:54.988Z,990.48
2023-01-11T11:00:55.038Z,990.48
2023-01-11T11:01:55.024Z,990.54
2023-01-11T11:02:54.952Z,990.49
2023-01-11T11:03:54.954Z,990.45
2023-01-11T11:04:54.933Z,990.46
2023-01-11T11:05:54.937Z,990.42
2023-01-11T11:06:54.909Z,990.50
2023-01-11T11:07:54.902Z,990.44
2023-01-11T11:08:54.890Z,990.55
2023-01-11T11:09:54.885Z,990.46
2023-01-11T11:10:54.895Z,990.39
2023-01-11T11:11:54.873Z,990.46
2023-01-11T11:12:54.842Z,990.52
2023-01-11T11:13:54.839Z,990.51
2023-01-11T11:14:54.821Z,990.47
2023-01-11T11:15:54.846Z,990.46
2023-01-11T11:16:54.806Z,990.51
2023-01-11T11:17:54.794Z,990.49
2023-01-11T11:18:54.788Z,990.54
2023-01-11T11:19:54.779Z,990.50
2023-01-11T11:20:54.773Z,990.53
2023-01-11T11:21:54.755Z,990.54
2023-01-11T11:22:54.743Z,990.47
2023-01-11T11:23:54.726Z,990.43
2023-01-11T11:24:54.723Z,990.42
2023-01-11T11:25:54.717Z,990.41
2023-01-11T11:26:54.697Z,990.38
2023-01-11T11:27:54.689Z,990.38
2023-01-11T11:28:54.688Z,990.38
2023-01-11T11:29:54.668Z,990.44
2023-01-11T11:30:54.672Z,990.45
2023-01-11T11:31:54.669Z,990.45
2023-01-11T11:32:54.643Z,990.46
2023-01-11T11:33:54.630Z,990.49
2023-01-11T11:34:54.610Z,990.55
2023-01-11T11:35:54.619Z,990.62
2023-01-11T11:36:54.591Z,990.58
2023-01-11T11:37:54.599Z,990.67
2023-01-11T11:38:55.012Z,990.63
2023-01-11T11:39:54.562Z,990.61
2023-01-11T11:40:54.560Z,990.56
2023-01-11T11:41:54.551Z,990.54
2023-01-11T11:42:54.532Z,990.47
2023-01-11T11:43:54.522Z,990.57
2023-01-11T11:44:54.505Z,990.57
2023-01-11T11:45:54.576Z,990.47
2023-01-11T11:46:54.503Z,990.44
2023-01-11T11:47:54.483Z,990.44
2023-01-11T11:48:54.465Z,990.45
2023-01-11T11:49:54.464Z,990.46
2023-01-11T11:50:54.456Z,990.39
2023-01-11T11:51:54.436Z,990.48
2023-01-11T11:52:54.416Z,990.41
2023-01-11T11:53:54.415Z,990.39
2023-01-11T11:54:54.395Z,990.44
2023-01-11T11:55:54.407Z,990.32
2023-01-11T11:56:54.381Z,990.37
2023-01-11T11:57:54.378Z,990.33
2023-01-11T11:58:54.357Z,990.33
2023-01-11T11:59:54.355Z,990.37
2023-01-11T12:00:54.384Z,990.30
2023-01-11T12:01:54.352Z,990.28
2023-01-11T12:02:54.345Z,990.32
2023-01-11T12:03:54.360Z,990.33
2023-01-11T12:04:54.400Z,990.26
2023-01-11T12:05:54.302Z,990.19
2023-01-11T12:06:54.270Z,990.24
2023-01-11T12:07:55.602Z,990.24
2023-01-11T12:08:54.250Z,990.28
2023-01-11T12:09:54.251Z,990.34
2023-01-11T12:10:54.241Z,990.30
2023-01-11T12:11:54.262Z,990.32
2023-01-11T12:12:54.211Z,990.39
2023-01-11T12:13:54.203Z,990.31
2023-01-11T12:14:54.192Z,990.32
2023-01-11T12:15:54.199Z,990.40
2023-01-11T12:16:54.223Z,990.33
2023-01-11T12:17:54.162Z,990.39
2023-01-11T12:18:54.144Z,990.38
2023-01-11T12:19:54.141Z,990.37
2023-01-11T12:20:54.133Z,990.33
2023-01-11T12:21:54.121Z,990.31
2023-01-11T12:22:54.114Z,990.32
2023-01-11T12:23:54.116Z,990.29
2023-01-11T12:24:54.083Z,990.24
2023-01-11T12:25:54.095Z,990.25
2023-01-11T12:26:54.157Z,990.23
2023-01-11T12:27:54.056Z,990.25
2023-01-11T12:28:54.037Z,990.31
2023-01-11T12:29:54.040Z,990.18
2023-01-11T12:30:54.079Z,990.12
2023-01-11T12:31:54.016Z,990.15
2023-01-11T12:32:54.009Z,990.20
2023-01-11T12:33:53.988Z,990.23
2023-01-11T12:34:53.981Z,990.14